MMZO

Details ICAO MMZO (ZLO)
Name PLAYA DE ORO INTERNATIONAL
Region Mexico
Timezone America/Mexico_City (UTC-5.0)
Plans Departing 25
Arriving 39
Stats Elevation 29 ft / 9 m (AMSL)
Location 19.144700° -104.558000°
Runways 1
Magnetic Variation 6.544° E
Sunrise 2018-10-15 12:53:34 UTC / 2018-10-15 07:53:34 Local
Sunset 2018-10-16 00:36:39 UTC / 2018-10-15 19:36:39 Local
Advertisement - Login to hide

Runways

ID Width Length Bearing (true/mag) Surface Threshold Overrun Markings Lighting
10 148 ft / 45 m 7,225 ft / 2,202 m 106.18° / 99.63° ASPHALT 0 ft / 0 m 0 ft / 0 m APP CENTERLINE EDGE THRESHOLD MALSF
28 148 ft / 45 m 7,225 ft / 2,202 m 286.19° / 279.64° ASPHALT 0 ft / 0 m 0 ft / 0 m APP CENTERLINE EDGE THRESHOLD MALSF

Map

Weather


0- 5 10 15 20 25 30 35+ Temperature / °C

Clouds and Precipitation
Forecast for 2018-10-16 00:00 UTC. Updated 3 hours ago

Ground ~20,000 ft ~40,000 ft Winds

METAR

MMZO 160018Z RTD 00000KT 3SM DZ SCT020 OVC210 24/24 A2977 RMK SLP075 5//// 9// 8/708 DZ HZ

TAF

TAF AMD TAF AMD MMZO 160059Z 1601/1618 00000KT 5SM -DZ SCT020 OVC210 TEMPO 1601/1603 3SM RA BKN020CB FM160400 12015G28KT 2SM -RA BKN010CB OVC020 FM161000 14010G20KT 4SM HZ OVC010

Frequencies

Approach 118.70 MHz MANZANILLO APP/TWR
Warning: Do not use this data for real-world aviation or navigation. No guarantee of current accuracy is given.